TimeEDT,TemperatureF,Dew PointF,Humidity,Sea Level PressureIn,VisibilityMPH,Wind Direction,Wind SpeedMPH,Gust SpeedMPH,PrecipitationIn,Events,Conditions,WindDirDegrees,DateUTC
12:35 AM,42.8,42.8,100,30.41,10.0,Calm,Calm,-,N/A,,Clear,0,2012-10-13 04:35:00
12:55 AM,42.8,42.8,100,30.41,10.0,ESE,5.8,-,N/A,,Clear,110,2012-10-13 04:55:00
1:55 AM,46.4,44.6,93,30.42,10.0,ESE,6.9,-,N/A,,Clear,110,2012-10-13 05:55:00
2:15 AM,46.4,44.6,93,30.41,10.0,ESE,9.2,-,N/A,,Clear,120,2012-10-13 06:15:00
2:35 AM,44.6,44.6,100,30.42,7.0,East,6.9,-,N/A,,Clear,100,2012-10-13 06:35:00
2:55 AM,44.6,42.8,93,30.41,7.0,East,9.2,-,N/A,,Scattered Clouds,90,2012-10-13 06:55:00
3:15 AM,44.6,42.8,93,30.42,7.0,East,4.6,-,N/A,,Overcast,100,2012-10-13 07:15:00
3:35 AM,44.6,41.0,87,30.42,5.0,East,4.6,-,N/A,,Overcast,100,2012-10-13 07:35:00
3:55 AM,42.8,39.2,87,30.42,5.0,East,3.5,-,N/A,,Scattered Clouds,90,2012-10-13 07:55:00
4:15 AM,41.0,39.2,93,30.43,10.0,Calm,Calm,-,N/A,,Clear,0,2012-10-13 08:15:00
4:35 AM,39.2,39.2,100,30.43,10.0,Calm,Calm,-,N/A,,Clear,0,2012-10-13 08:35:00
4:55 AM,39.2,39.2,100,30.44,10.0,Calm,Calm,-,N/A,,Clear,0,2012-10-13 08:55:00
5:15 AM,37.4,37.4,100,30.44,10.0,Calm,Calm,-,N/A,,Clear,0,2012-10-13 09:15:00
5:35 AM,37.4,37.4,100,30.45,10.0,Calm,Calm,-,N/A,,Clear,0,2012-10-13 09:35:00
5:55 AM,37.4,37.4,100,30.45,10.0,Calm,Calm,-,N/A,,Clear,0,2012-10-13 09:55:00
6:15 AM,37.4,37.4,100,30.46,10.0,Calm,Calm,-,N/A,,Clear,0,2012-10-13 10:15:00
6:35 AM,35.6,35.6,100,30.47,10.0,Calm,Calm,-,N/A,,Clear,0,2012-10-13 10:35:00
6:55 AM,35.6,35.6,100,30.48,7.0,Calm,Calm,-,N/A,,Clear,0,2012-10-13 10:55:00
7:15 AM,35.6,35.6,100,30.48,10.0,Calm,Calm,-,N/A,,Clear,0,2012-10-13 11:15:00
7:35 AM,35.6,35.6,100,30.48,10.0,Calm,Calm,-,N/A,,Clear,0,2012-10-13 11:35:00
7:55 AM,35.6,35.6,100,30.48,5.0,Calm,Calm,-,N/A,,Clear,0,2012-10-13 11:55:00
8:15 AM,37.4,37.4,100,30.48,10.0,Calm,Calm,-,N/A,,Clear,0,2012-10-13 12:15:00
8:35 AM,41.0,41.0,100,30.48,10.0,Calm,Calm,-,N/A,,Clear,0,2012-10-13 12:35:00
8:55 AM,42.8,41.0,93,30.48,10.0,Calm,Calm,-,N/A,,Clear,0,2012-10-13 12:55:00
9:15 AM,46.4,39.2,76,30.49,10.0,Calm,Calm,-,N/A,,Clear,0,2012-10-13 13:15:00
9:55 AM,48.2,39.2,71,30.49,10.0,ESE,4.6,-,N/A,,Clear,120,2012-10-13 13:55:00
10:35 AM,50.0,39.2,66,30.50,10.0,ESE,6.9,-,N/A,,Clear,110,2012-10-13 14:35:00
10:55 AM,51.8,39.2,62,30.50,10.0,SSE,5.8,-,N/A,,Clear,160,2012-10-13 14:55:00
11:15 AM,51.8,39.2,62,30.49,10.0,South,3.5,-,N/A,,Clear,170,2012-10-13 15:15:00
11:35 AM,53.6,39.2,58,30.48,10.0,East,5.8,-,N/A,,Clear,100,2012-10-13 15:35:00
11:55 AM,53.6,39.2,58,30.47,10.0,SE,3.5,-,N/A,,Clear,140,2012-10-13 15:55:00
12:15 PM,55.4,39.2,54,30.46,10.0,East,3.5,-,N/A,,Clear,80,2012-10-13 16:15:00
12:35 PM,55.4,41.0,58,30.46,10.0,SSE,8.1,-,N/A,,Clear,150,2012-10-13 16:35:00
12:55 PM,55.4,41.0,58,30.45,10.0,Calm,Calm,-,N/A,,Clear,0,2012-10-13 16:55:00
1:35 PM,57.2,42.8,59,30.42,10.0,SSW,6.9,-,N/A,,Clear,210,2012-10-13 17:35:00
1:55 PM,60.8,42.8,52,30.41,10.0,SSE,8.1,-,N/A,,Clear,160,2012-10-13 17:55:00
2:15 PM,60.8,42.8,52,30.39,10.0,South,3.5,-,N/A,,Clear,190,2012-10-13 18:15:00
2:35 PM,60.8,42.8,52,30.38,10.0,South,5.8,-,N/A,,Clear,180,2012-10-13 18:35:00
2:55 PM,62.6,44.6,52,30.38,10.0,South,3.5,-,N/A,,Clear,190,2012-10-13 18:55:00
3:15 PM,62.6,44.6,52,30.37,10.0,South,4.6,9.2,N/A,,Clear,190,2012-10-13 19:15:00
3:35 PM,62.6,44.6,52,30.36,10.0,South,3.5,-,N/A,,Clear,180,2012-10-13 19:35:00
3:55 PM,62.6,46.4,55,30.36,10.0,SW,5.8,-,N/A,,Clear,230,2012-10-13 19:55:00
4:15 PM,62.6,46.4,55,30.35,10.0,SE,3.5,-,N/A,,Clear,130,2012-10-13 20:15:00
4:35 PM,62.6,46.4,55,30.34,10.0,SSW,8.1,-,N/A,,Clear,210,2012-10-13 20:35:00
4:55 PM,62.6,46.4,55,30.34,10.0,South,5.8,-,N/A,,Clear,180,2012-10-13 20:55:00
5:15 PM,62.6,46.4,55,30.34,10.0,South,5.8,-,N/A,,Clear,190,2012-10-13 21:15:00
5:35 PM,62.6,46.4,55,30.34,10.0,SSW,4.6,-,N/A,,Clear,200,2012-10-13 21:35:00
5:55 PM,60.8,46.4,59,30.34,10.0,SSE,6.9,-,N/A,,Clear,150,2012-10-13 21:55:00
6:15 PM,59.0,46.4,63,30.34,10.0,SSE,6.9,-,N/A,,Clear,150,2012-10-13 22:15:00
6:35 PM,57.2,46.4,67,30.35,10.0,SSE,5.8,-,N/A,,Clear,160,2012-10-13 22:35:00
6:55 PM,55.4,46.4,72,30.35,10.0,SSE,4.6,-,N/A,,Clear,160,2012-10-13 22:55:00
7:15 PM,55.4,46.4,72,30.36,10.0,South,3.5,-,N/A,,Clear,170,2012-10-13 23:15:00
7:35 PM,53.6,46.4,77,30.37,10.0,Calm,Calm,-,N/A,,Clear,0,2012-10-13 23:35:00
7:55 PM,53.6,46.4,77,30.37,10.0,Calm,Calm,-,N/A,,Clear,0,2012-10-13 23:55:00
8:35 PM,51.8,44.6,76,30.37,10.0,SSE,4.6,-,N/A,,Clear,150,2012-10-14 00:35:00
8:55 PM,51.8,44.6,76,30.37,10.0,Calm,Calm,-,N/A,,Clear,0,2012-10-14 00:55:00
10:15 PM,48.2,44.6,87,30.37,10.0,Calm,Calm,-,N/A,,Clear,0,2012-10-14 02:15:00
10:35 PM,46.4,44.6,93,30.37,10.0,Calm,Calm,-,N/A,,Clear,0,2012-10-14 02:35:00
10:55 PM,44.6,44.6,100,30.36,10.0,Calm,Calm,-,N/A,,Clear,0,2012-10-14 02:55:00
11:15 PM,46.4,44.6,93,30.36,10.0,Calm,Calm,-,N/A,,Clear,0,2012-10-14 03:15:00